sensor_id;sensor_type;location;lat;lon;timestamp;temperature;humidity
15819;DHT22;8010;53.986;12.106;2022-09-09T00:04:06;14.60;99.90
15819;DHT22;8010;53.986;12.106;2022-09-09T00:09:17;14.60;99.90
15819;DHT22;8010;53.986;12.106;2022-09-09T00:11:47;14.60;99.90
15819;DHT22;8010;53.986;12.106;2022-09-09T00:14:41;16.60;99.90
15819;DHT22;8010;53.986;12.106;2022-09-09T00:19:56;14.60;99.90
15819;DHT22;8010;53.986;12.106;2022-09-09T00:22:27;14.60;99.90
15819;DHT22;8010;53.986;12.106;2022-09-09T00:25:02;14.60;99.90
15819;DHT22;8010;53.986;12.106;2022-09-09T00:27:41;14.60;99.90
15819;DHT22;8010;53.986;12.106;2022-09-09T00:30:18;14.60;99.90
15819;DHT22;8010;53.986;12.106;2022-09-09T00:32:54;14.60;99.90
15819;DHT22;8010;53.986;12.106;2022-09-09T00:35:27;14.60;99.90
15819;DHT22;8010;53.986;12.106;2022-09-09T00:37:57;14.60;99.90
15819;DHT22;8010;53.986;12.106;2022-09-09T00:40:34;14.60;99.90
15819;DHT22;8010;53.986;12.106;2022-09-09T00:43:21;14.60;99.90
15819;DHT22;8010;53.986;12.106;2022-09-09T00:46:14;14.60;99.90
15819;DHT22;8010;53.986;12.106;2022-09-09T00:57:00;14.60;99.90
15819;DHT22;8010;53.986;12.106;2022-09-09T01:02:07;14.60;99.90
15819;DHT22;8010;53.986;12.106;2022-09-09T01:04:38;14.60;99.90
15819;DHT22;8010;53.986;12.106;2022-09-09T01:07:17;14.80;99.90
15819;DHT22;8010;53.986;12.106;2022-09-09T01:09:57;14.60;99.90
15819;DHT22;8010;53.986;12.106;2022-09-09T01:12:42;14.60;99.90
15819;DHT22;8010;53.986;12.106;2022-09-09T01:15:22;14.50;99.90
15819;DHT22;8010;53.986;12.106;2022-09-09T01:18:08;14.60;99.90
15819;DHT22;8010;53.986;12.106;2022-09-09T01:20:44;14.50;99.90
15819;DHT22;8010;53.986;12.106;2022-09-09T01:23:19;14.60;99.90
15819;DHT22;8010;53.986;12.106;2022-09-09T01:28:40;14.60;99.90
15819;DHT22;8010;53.986;12.106;2022-09-09T01:31:10;14.50;99.90
15819;DHT22;8010;53.986;12.106;2022-09-09T01:33:37;14.50;99.90
15819;DHT22;8010;53.986;12.106;2022-09-09T01:36:18;14.50;99.90
15819;DHT22;8010;53.986;12.106;2022-09-09T01:38:44;14.50;99.90
15819;DHT22;8010;53.986;12.106;2022-09-09T01:41:10;14.50;99.90
15819;DHT22;8010;53.986;12.106;2022-09-09T01:43:35;15.40;99.90
15819;DHT22;8010;53.986;12.106;2022-09-09T01:46:01;14.50;99.90
15819;DHT22;8010;53.986;12.106;2022-09-09T01:48:29;15.70;99.90
15819;DHT22;8010;53.986;12.106;2022-09-09T01:50:55;14.50;99.90
15819;DHT22;8010;53.986;12.106;2022-09-09T01:53:22;14.60;99.90
15819;DHT22;8010;53.986;12.106;2022-09-09T01:56:15;14.80;99.90
15819;DHT22;8010;53.986;12.106;2022-09-09T02:02:12;14.60;99.90
15819;DHT22;8010;53.986;12.106;2022-09-09T02:04:42;14.60;99.90
15819;DHT22;8010;53.986;12.106;2022-09-09T02:07:25;14.60;99.90
15819;DHT22;8010;53.986;12.106;2022-09-09T02:10:03;14.60;99.90
15819;DHT22;8010;53.986;12.106;2022-09-09T02:12:31;14.60;99.90
15819;DHT22;8010;53.986;12.106;2022-09-09T02:15:05;14.50;99.90
15819;DHT22;8010;53.986;12.106;2022-09-09T02:17:35;14.60;99.90
15819;DHT22;8010;53.986;12.106;2022-09-09T02:20:06;14.60;99.90
15819;DHT22;8010;53.986;12.106;2022-09-09T02:22:34;14.60;99.90
15819;DHT22;8010;53.986;12.106;2022-09-09T02:25:01;14.60;99.90
15819;DHT22;8010;53.986;12.106;2022-09-09T02:27:28;14.70;99.90
15819;DHT22;8010;53.986;12.106;2022-09-09T02:29:55;14.60;99.90
15819;DHT22;8010;53.986;12.106;2022-09-09T02:32:23;14.60;99.90
15819;DHT22;8010;53.986;12.106;2022-09-09T02:34:56;14.60;99.90
15819;DHT22;8010;53.986;12.106;2022-09-09T02:37:29;14.60;99.90
15819;DHT22;8010;53.986;12.106;2022-09-09T02:39:57;14.60;99.90
15819;DHT22;8010;53.986;12.106;2022-09-09T02:42:22;14.60;99.90
15819;DHT22;8010;53.986;12.106;2022-09-09T02:44:49;14.60;99.90
15819;DHT22;8010;53.986;12.106;2022-09-09T02:50:19;14.60;99.90
15819;DHT22;8010;53.986;12.106;2022-09-09T02:53:14;14.60;99.90
15819;DHT22;8010;53.986;12.106;2022-09-09T02:55:42;14.60;99.90
15819;DHT22;8010;53.986;12.106;2022-09-09T02:58:12;14.60;99.90
15819;DHT22;8010;53.986;12.106;2022-09-09T03:00:43;14.60;99.90
15819;DHT22;8010;53.986;12.106;2022-09-09T03:03:09;14.80;99.90
15819;DHT22;8010;53.986;12.106;2022-09-09T03:05:35;14.60;99.90
15819;DHT22;8010;53.986;12.106;2022-09-09T03:08:02;15.10;99.90
15819;DHT22;8010;53.986;12.106;2022-09-09T03:10:27;14.60;99.90
15819;DHT22;8010;53.986;12.106;2022-09-09T03:12:53;14.60;99.90
15819;DHT22;8010;53.986;12.106;2022-09-09T03:15:19;14.60;99.90
15819;DHT22;8010;53.986;12.106;2022-09-09T03:17:44;14.60;99.90
15819;DHT22;8010;53.986;12.106;2022-09-09T03:20:10;17.70;99.90
15819;DHT22;8010;53.986;12.106;2022-09-09T03:22:35;14.50;99.90
15819;DHT22;8010;53.986;12.106;2022-09-09T03:25:01;14.80;99.90
15819;DHT22;8010;53.986;12.106;2022-09-09T03:27:28;14.50;99.90
15819;DHT22;8010;53.986;12.106;2022-09-09T03:29:54;14.60;99.90
15819;DHT22;8010;53.986;12.106;2022-09-09T03:32:20;14.60;99.90
15819;DHT22;8010;53.986;12.106;2022-09-09T03:34:48;14.60;99.90
15819;DHT22;8010;53.986;12.106;2022-09-09T03:37:15;14.60;99.90
15819;DHT22;8010;53.986;12.106;2022-09-09T03:39:41;14.60;99.90
15819;DHT22;8010;53.986;12.106;2022-09-09T03:42:06;14.60;99.90
15819;DHT22;8010;53.986;12.106;2022-09-09T03:44:32;14.60;99.90
15819;DHT22;8010;53.986;12.106;2022-09-09T03:46:57;14.60;99.90
15819;DHT22;8010;53.986;12.106;2022-09-09T03:49:25;14.60;99.90
15819;DHT22;8010;53.986;12.106;2022-09-09T03:51:51;14.60;99.90
15819;DHT22;8010;53.986;12.106;2022-09-09T03:54:17;14.60;99.90
15819;DHT22;8010;53.986;12.106;2022-09-09T03:56:42;14.60;99.90
15819;DHT22;8010;53.986;12.106;2022-09-09T03:59:08;14.70;99.90
15819;DHT22;8010;53.986;12.106;2022-09-09T04:01:34;14.70;99.90
15819;DHT22;8010;53.986;12.106;2022-09-09T04:04:00;14.60;99.90
15819;DHT22;8010;53.986;12.106;2022-09-09T04:06:28;14.60;99.90
15819;DHT22;8010;53.986;12.106;2022-09-09T04:08:54;14.60;99.90
15819;DHT22;8010;53.986;12.106;2022-09-09T04:11:20;14.60;99.90
15819;DHT22;8010;53.986;12.106;2022-09-09T04:13:46;14.60;99.90
15819;DHT22;8010;53.986;12.106;2022-09-09T04:16:12;14.60;99.90
15819;DHT22;8010;53.986;12.106;2022-09-09T04:18:38;14.60;99.90
15819;DHT22;8010;53.986;12.106;2022-09-09T04:21:05;14.60;99.90
15819;DHT22;8010;53.986;12.106;2022-09-09T04:23:31;14.60;99.90
15819;DHT22;8010;53.986;12.106;2022-09-09T04:26:00;14.60;99.90
15819;DHT22;8010;53.986;12.106;2022-09-09T04:28:29;14.60;99.90
15819;DHT22;8010;53.986;12.106;2022-09-09T04:30:55;14.70;99.90
15819;DHT22;8010;53.986;12.106;2022-09-09T04:33:23;16.10;99.90
15819;DHT22;8010;53.986;12.106;2022-09-09T04:35:52;14.60;99.90
15819;DHT22;8010;53.986;12.106;2022-09-09T04:38:19;14.60;99.90
15819;DHT22;8010;53.986;12.106;2022-09-09T04:40:48;14.70;99.90
15819;DHT22;8010;53.986;12.106;2022-09-09T04:43:14;14.60;99.90
15819;DHT22;8010;53.986;12.106;2022-09-09T04:45:40;14.70;99.90
15819;DHT22;8010;53.986;12.106;2022-09-09T04:48:06;14.60;99.90
15819;DHT22;8010;53.986;12.106;2022-09-09T04:50:32;14.60;99.90
15819;DHT22;8010;53.986;12.106;2022-09-09T04:53:02;14.70;99.90
15819;DHT22;8010;53.986;12.106;2022-09-09T04:55:28;14.70;99.90
15819;DHT22;8010;53.986;12.106;2022-09-09T04:57:54;14.80;99.90
15819;DHT22;8010;53.986;12.106;2022-09-09T05:00:19;14.80;99.90
15819;DHT22;8010;53.986;12.106;2022-09-09T05:02:45;14.80;99.90
15819;DHT22;8010;53.986;12.106;2022-09-09T05:05:11;14.80;99.90
15819;DHT22;8010;53.986;12.106;2022-09-09T05:07:37;14.80;99.90
15819;DHT22;8010;53.986;12.106;2022-09-09T05:10:03;14.80;99.90
15819;DHT22;8010;53.986;12.106;2022-09-09T05:12:30;14.80;99.90
15819;DHT22;8010;53.986;12.106;2022-09-09T05:14:56;14.80;99.90
15819;DHT22;8010;53.986;12.106;2022-09-09T05:17:22;14.90;99.90
15819;DHT22;8010;53.986;12.106;2022-09-09T05:19:47;14.90;99.90
15819;DHT22;8010;53.986;12.106;2022-09-09T05:22:21;15.00;99.90
15819;DHT22;8010;53.986;12.106;2022-09-09T05:24:49;14.90;99.90
15819;DHT22;8010;53.986;12.106;2022-09-09T05:27:19;14.90;99.90
15819;DHT22;8010;53.986;12.106;2022-09-09T05:29:45;14.90;99.90
15819;DHT22;8010;53.986;12.106;2022-09-09T05:32:11;14.90;99.90
15819;DHT22;8010;53.986;12.106;2022-09-09T05:34:37;14.90;99.90
15819;DHT22;8010;53.986;12.106;2022-09-09T05:37:03;15.00;99.90
15819;DHT22;8010;53.986;12.106;2022-09-09T05:39:29;15.00;99.90
15819;DHT22;8010;53.986;12.106;2022-09-09T05:41:55;15.00;99.90
15819;DHT22;8010;53.986;12.106;2022-09-09T05:44:20;15.00;99.90
15819;DHT22;8010;53.986;12.106;2022-09-09T05:46:48;15.00;99.90
15819;DHT22;8010;53.986;12.106;2022-09-09T05:49:14;15.10;99.90
15819;DHT22;8010;53.986;12.106;2022-09-09T05:51:41;15.10;99.90
15819;DHT22;8010;53.986;12.106;2022-09-09T05:54:08;15.10;99.90
15819;DHT22;8010;53.986;12.106;2022-09-09T05:56:34;15.10;99.90
15819;DHT22;8010;53.986;12.106;2022-09-09T05:58:59;15.20;99.90
15819;DHT22;8010;53.986;12.106;2022-09-09T06:01:28;15.20;99.90
15819;DHT22;8010;53.986;12.106;2022-09-09T06:03:54;15.20;99.90
15819;DHT22;8010;53.986;12.106;2022-09-09T06:06:22;15.20;99.90
15819;DHT22;8010;53.986;12.106;2022-09-09T06:08:50;15.20;99.90
15819;DHT22;8010;53.986;12.106;2022-09-09T06:11:21;15.20;99.90
15819;DHT22;8010;53.986;12.106;2022-09-09T06:13:48;15.20;99.90
15819;DHT22;8010;53.986;12.106;2022-09-09T06:16:18;15.20;99.90
15819;DHT22;8010;53.986;12.106;2022-09-09T06:18:44;15.10;99.90
15819;DHT22;8010;53.986;12.106;2022-09-09T06:21:20;15.20;99.90
15819;DHT22;8010;53.986;12.106;2022-09-09T06:23:47;15.20;99.90
15819;DHT22;8010;53.986;12.106;2022-09-09T06:26:23;15.20;99.90
15819;DHT22;8010;53.986;12.106;2022-09-09T06:28:50;15.30;99.90
15819;DHT22;8010;53.986;12.106;2022-09-09T06:31:19;15.30;99.90
15819;DHT22;8010;53.986;12.106;2022-09-09T06:33:52;15.40;99.90
15819;DHT22;8010;53.986;12.106;2022-09-09T06:36:23;15.40;99.90
15819;DHT22;8010;53.986;12.106;2022-09-09T06:38:50;15.40;99.90
15819;DHT22;8010;53.986;12.106;2022-09-09T06:41:17;15.40;99.90
15819;DHT22;8010;53.986;12.106;2022-09-09T06:43:44;15.40;99.90
15819;DHT22;8010;53.986;12.106;2022-09-09T06:46:20;15.40;99.90
15819;DHT22;8010;53.986;12.106;2022-09-09T06:48:47;15.40;99.90
15819;DHT22;8010;53.986;12.106;2022-09-09T06:51:18;15.40;99.90
15819;DHT22;8010;53.986;12.106;2022-09-09T06:53:45;15.40;99.90
15819;DHT22;8010;53.986;12.106;2022-09-09T06:58:37;15.40;99.90
15819;DHT22;8010;53.986;12.106;2022-09-09T07:01:06;15.40;99.90
15819;DHT22;8010;53.986;12.106;2022-09-09T07:03:32;15.40;99.90
15819;DHT22;8010;53.986;12.106;2022-09-09T07:05:59;15.40;99.90
15819;DHT22;8010;53.986;12.106;2022-09-09T07:08:25;15.40;99.90
15819;DHT22;8010;53.986;12.106;2022-09-09T07:10:51;15.40;99.90
15819;DHT22;8010;53.986;12.106;2022-09-09T07:13:26;15.40;99.90
15819;DHT22;8010;53.986;12.106;2022-09-09T07:15:52;15.50;99.90
15819;DHT22;8010;53.986;12.106;2022-09-09T07:18:19;15.60;99.90
15819;DHT22;8010;53.986;12.106;2022-09-09T07:20:54;15.60;99.90
15819;DHT22;8010;53.986;12.106;2022-09-09T07:23:20;15.60;99.90
15819;DHT22;8010;53.986;12.106;2022-09-09T07:25:46;15.60;99.90
15819;DHT22;8010;53.986;12.106;2022-09-09T07:28:13;15.60;99.90
15819;DHT22;8010;53.986;12.106;2022-09-09T07:30:38;15.60;99.90
15819;DHT22;8010;53.986;12.106;2022-09-09T07:33:05;15.60;99.90
15819;DHT22;8010;53.986;12.106;2022-09-09T07:35:31;15.70;99.90
15819;DHT22;8010;53.986;12.106;2022-09-09T07:37:56;15.60;99.90
15819;DHT22;8010;53.986;12.106;2022-09-09T07:40:22;15.60;99.90
15819;DHT22;8010;53.986;12.106;2022-09-09T07:42:48;15.60;99.90
15819;DHT22;8010;53.986;12.106;2022-09-09T07:45:13;15.60;99.90
15819;DHT22;8010;53.986;12.106;2022-09-09T07:47:40;16.30;99.90
15819;DHT22;8010;53.986;12.106;2022-09-09T07:50:08;15.60;99.90
15819;DHT22;8010;53.986;12.106;2022-09-09T07:52:34;15.70;99.90
15819;DHT22;8010;53.986;12.106;2022-09-09T07:55:00;15.70;99.90
15819;DHT22;8010;53.986;12.106;2022-09-09T07:57:28;15.90;99.90
15819;DHT22;8010;53.986;12.106;2022-09-09T07:59:55;16.00;99.90
15819;DHT22;8010;53.986;12.106;2022-09-09T08:02:22;16.10;99.90
15819;DHT22;8010;53.986;12.106;2022-09-09T08:04:48;16.20;99.90
15819;DHT22;8010;53.986;12.106;2022-09-09T08:07:13;16.30;99.90
15819;DHT22;8010;53.986;12.106;2022-09-09T08:09:39;16.20;99.90
15819;DHT22;8010;53.986;12.106;2022-09-09T08:12:05;16.20;99.90
15819;DHT22;8010;53.986;12.106;2022-09-09T08:14:33;16.10;99.90
15819;DHT22;8010;53.986;12.106;2022-09-09T08:16:59;16.10;99.90
15819;DHT22;8010;53.986;12.106;2022-09-09T08:19:25;16.00;99.90
15819;DHT22;8010;53.986;12.106;2022-09-09T08:21:50;15.90;99.90
15819;DHT22;8010;53.986;12.106;2022-09-09T08:24:16;15.90;99.90
15819;DHT22;8010;53.986;12.106;2022-09-09T08:26:47;15.90;99.90
15819;DHT22;8010;53.986;12.106;2022-09-09T08:29:15;15.90;99.90
15819;DHT22;8010;53.986;12.106;2022-09-09T08:31:51;15.90;99.90
15819;DHT22;8010;53.986;12.106;2022-09-09T08:34:20;16.00;99.90
15819;DHT22;8010;53.986;12.106;2022-09-09T08:36:47;16.10;99.90
15819;DHT22;8010;53.986;12.106;2022-09-09T08:39:14;16.20;99.90
15819;DHT22;8010;53.986;12.106;2022-09-09T08:55:47;16.50;99.90
15819;DHT22;8010;53.986;12.106;2022-09-09T09:03:44;16.70;99.90
15819;DHT22;8010;53.986;12.106;2022-09-09T09:06:50;16.80;99.90
15819;DHT22;8010;53.986;12.106;2022-09-09T09:09:25;16.90;99.90
15819;DHT22;8010;53.986;12.106;2022-09-09T09:11:59;16.90;99.90
15819;DHT22;8010;53.986;12.106;2022-09-09T09:14:30;17.00;99.90
15819;DHT22;8010;53.986;12.106;2022-09-09T09:17:12;17.20;99.90
15819;DHT22;8010;53.986;12.106;2022-09-09T09:19:40;17.40;99.90
15819;DHT22;8010;53.986;12.106;2022-09-09T09:22:21;17.70;99.90
15819;DHT22;8010;53.986;12.106;2022-09-09T09:27:35;18.60;99.90
15819;DHT22;8010;53.986;12.106;2022-09-09T09:30:15;19.20;99.90
15819;DHT22;8010;53.986;12.106;2022-09-09T09:32:49;19.60;99.90
15819;DHT22;8010;53.986;12.106;2022-09-09T09:35:16;19.90;99.90
15819;DHT22;8010;53.986;12.106;2022-09-09T09:37:42;20.30;99.90
15819;DHT22;8010;53.986;12.106;2022-09-09T09:40:14;20.50;99.90
15819;DHT22;8010;53.986;12.106;2022-09-09T09:42:59;20.40;99.90
15819;DHT22;8010;53.986;12.106;2022-09-09T09:45:33;20.20;99.90
15819;DHT22;8010;53.986;12.106;2022-09-09T09:48:02;20.20;99.90
15819;DHT22;8010;53.986;12.106;2022-09-09T09:50:28;20.40;99.90
15819;DHT22;8010;53.986;12.106;2022-09-09T09:52:56;20.80;99.90
15819;DHT22;8010;53.986;12.106;2022-09-09T09:55:22;20.90;99.90
15819;DHT22;8010;53.986;12.106;2022-09-09T09:57:49;20.90;99.90
15819;DHT22;8010;53.986;12.106;2022-09-09T10:00:21;21.00;99.90
15819;DHT22;8010;53.986;12.106;2022-09-09T10:02:47;21.40;99.90
15819;DHT22;8010;53.986;12.106;2022-09-09T10:05:23;21.60;99.90
15819;DHT22;8010;53.986;12.106;2022-09-09T10:08:10;21.80;99.90
15819;DHT22;8010;53.986;12.106;2022-09-09T10:13:35;22.40;99.90
15819;DHT22;8010;53.986;12.106;2022-09-09T10:16:13;22.70;99.90
15819;DHT22;8010;53.986;12.106;2022-09-09T10:18:55;22.90;99.90
15819;DHT22;8010;53.986;12.106;2022-09-09T10:31:57;22.60;99.90
15819;DHT22;8010;53.986;12.106;2022-09-09T10:34:49;22.60;99.90
15819;DHT22;8010;53.986;12.106;2022-09-09T10:37:37;22.60;99.90
15819;DHT22;8010;53.986;12.106;2022-09-09T10:48:54;23.40;99.90
15819;DHT22;8010;53.986;12.106;2022-09-09T10:51:39;23.60;99.90
15819;DHT22;8010;53.986;12.106;2022-09-09T10:56:43;23.30;99.90
15819;DHT22;8010;53.986;12.106;2022-09-09T10:59:34;23.60;99.90
15819;DHT22;8010;53.986;12.106;2022-09-09T11:02:31;23.40;99.90
15819;DHT22;8010;53.986;12.106;2022-09-09T11:07:43;23.10;99.90
15819;DHT22;8010;53.986;12.106;2022-09-09T11:10:40;22.90;99.90
15819;DHT22;8010;53.986;12.106;2022-09-09T11:16:41;22.70;99.90
15819;DHT22;8010;53.986;12.106;2022-09-09T11:19:26;22.70;99.90
15819;DHT22;8010;53.986;12.106;2022-09-09T11:21:53;22.80;99.90
15819;DHT22;8010;53.986;12.106;2022-09-09T11:24:33;22.90;99.90
15819;DHT22;8010;53.986;12.106;2022-09-09T11:27:11;23.00;99.90
15819;DHT22;8010;53.986;12.106;2022-09-09T11:30:05;23.10;99.90
15819;DHT22;8010;53.986;12.106;2022-09-09T11:32:40;23.40;99.90
15819;DHT22;8010;53.986;12.106;2022-09-09T11:35:43;24.00;99.90
15819;DHT22;8010;53.986;12.106;2022-09-09T11:40:45;23.70;99.90
15819;DHT22;8010;53.986;12.106;2022-09-09T11:43:33;23.40;99.90
15819;DHT22;8010;53.986;12.106;2022-09-09T11:46:01;23.10;99.90
15819;DHT22;8010;53.986;12.106;2022-09-09T11:48:36;22.90;99.90
15819;DHT22;8010;53.986;12.106;2022-09-09T11:51:08;22.70;99.90
15819;DHT22;8010;53.986;12.106;2022-09-09T11:56:25;22.70;99.90
15819;DHT22;8010;53.986;12.106;2022-09-09T11:59:16;22.60;99.90
15819;DHT22;8010;53.986;12.106;2022-09-09T12:01:45;22.30;99.90
15819;DHT22;8010;53.986;12.106;2022-09-09T12:04:49;22.10;99.90
15819;DHT22;8010;53.986;12.106;2022-09-09T12:07:35;21.90;99.90
15819;DHT22;8010;53.986;12.106;2022-09-09T12:12:43;21.90;99.90
15819;DHT22;8010;53.986;12.106;2022-09-09T12:17:49;23.70;99.90
15819;DHT22;8010;53.986;12.106;2022-09-09T12:23:05;22.70;99.90
15819;DHT22;8010;53.986;12.106;2022-09-09T12:26:15;22.60;99.90
15819;DHT22;8010;53.986;12.106;2022-09-09T12:29:02;22.40;99.90
15819;DHT22;8010;53.986;12.106;2022-09-09T12:31:38;22.20;99.90
15819;DHT22;8010;53.986;12.106;2022-09-09T12:36:44;21.70;99.90
15819;DHT22;8010;53.986;12.106;2022-09-09T12:39:25;21.60;99.90
15819;DHT22;8010;53.986;12.106;2022-09-09T12:41:53;21.50;99.90
15819;DHT22;8010;53.986;12.106;2022-09-09T12:44:26;21.40;99.90
15819;DHT22;8010;53.986;12.106;2022-09-09T12:46:56;21.30;99.90
15819;DHT22;8010;53.986;12.106;2022-09-09T12:49:26;21.30;99.90
15819;DHT22;8010;53.986;12.106;2022-09-09T12:51:53;21.50;99.90
15819;DHT22;8010;53.986;12.106;2022-09-09T12:54:20;21.50;99.90
15819;DHT22;8010;53.986;12.106;2022-09-09T12:56:47;21.40;99.90
15819;DHT22;8010;53.986;12.106;2022-09-09T12:59:40;21.20;99.90
15819;DHT22;8010;53.986;12.106;2022-09-09T13:02:23;20.90;99.90
15819;DHT22;8010;53.986;12.106;2022-09-09T13:04:50;20.70;99.90
15819;DHT22;8010;53.986;12.106;2022-09-09T13:07:17;20.60;99.90
15819;DHT22;8010;53.986;12.106;2022-09-09T13:09:44;20.40;99.90
15819;DHT22;8010;53.986;12.106;2022-09-09T13:12:18;20.30;99.90
15819;DHT22;8010;53.986;12.106;2022-09-09T13:14:52;20.20;99.90
15819;DHT22;8010;53.986;12.106;2022-09-09T13:17:26;20.10;99.90
15819;DHT22;8010;53.986;12.106;2022-09-09T13:19:54;19.90;99.90
15819;DHT22;8010;53.986;12.106;2022-09-09T13:22:31;19.90;99.90
15819;DHT22;8010;53.986;12.106;2022-09-09T13:27:57;19.60;99.90
15819;DHT22;8010;53.986;12.106;2022-09-09T13:30:26;19.50;99.90
15819;DHT22;8010;53.986;12.106;2022-09-09T13:35:35;19.00;99.90
15819;DHT22;8010;53.986;12.106;2022-09-09T13:38:09;18.80;99.90
15819;DHT22;8010;53.986;12.106;2022-09-09T13:40:35;18.50;99.90
15819;DHT22;8010;53.986;12.106;2022-09-09T13:43:02;18.30;99.90
15819;DHT22;8010;53.986;12.106;2022-09-09T13:45:28;18.20;99.90
15819;DHT22;8010;53.986;12.106;2022-09-09T13:47:55;18.20;99.90
15819;DHT22;8010;53.986;12.106;2022-09-09T13:50:28;18.20;99.90
15819;DHT22;8010;53.986;12.106;2022-09-09T13:52:58;18.30;99.90
15819;DHT22;8010;53.986;12.106;2022-09-09T13:55:25;18.50;99.90
15819;DHT22;8010;53.986;12.106;2022-09-09T13:58:03;18.70;99.90
15819;DHT22;8010;53.986;12.106;2022-09-09T14:00:32;19.00;99.90
15819;DHT22;8010;53.986;12.106;2022-09-09T14:02:58;19.10;99.90
15819;DHT22;8010;53.986;12.106;2022-09-09T14:05:26;19.20;99.90
15819;DHT22;8010;53.986;12.106;2022-09-09T14:07:52;19.20;99.90
15819;DHT22;8010;53.986;12.106;2022-09-09T14:10:18;19.30;99.90
15819;DHT22;8010;53.986;12.106;2022-09-09T14:12:44;19.30;99.90
15819;DHT22;8010;53.986;12.106;2022-09-09T14:15:11;19.30;99.90
15819;DHT22;8010;53.986;12.106;2022-09-09T14:17:37;19.30;99.90
15819;DHT22;8010;53.986;12.106;2022-09-09T14:20:04;19.30;99.90
15819;DHT22;8010;53.986;12.106;2022-09-09T14:22:35;19.40;99.90
15819;DHT22;8010;53.986;12.106;2022-09-09T14:25:01;19.50;99.90
15819;DHT22;8010;53.986;12.106;2022-09-09T14:27:27;19.50;99.90
15819;DHT22;8010;53.986;12.106;2022-09-09T14:29:53;19.60;99.90
15819;DHT22;8010;53.986;12.106;2022-09-09T14:32:19;19.80;99.90
15819;DHT22;8010;53.986;12.106;2022-09-09T14:34:45;19.80;99.90
15819;DHT22;8010;53.986;12.106;2022-09-09T14:37:11;19.90;99.90
15819;DHT22;8010;53.986;12.106;2022-09-09T14:39:36;19.80;99.90
15819;DHT22;8010;53.986;12.106;2022-09-09T14:42:02;19.90;99.90
15819;DHT22;8010;53.986;12.106;2022-09-09T14:44:28;20.10;99.90
15819;DHT22;8010;53.986;12.106;2022-09-09T14:46:53;20.20;99.90
15819;DHT22;8010;53.986;12.106;2022-09-09T14:49:19;20.30;99.90
15819;DHT22;8010;53.986;12.106;2022-09-09T14:51:45;20.30;99.90
15819;DHT22;8010;53.986;12.106;2022-09-09T14:54:10;20.20;99.90
15819;DHT22;8010;53.986;12.106;2022-09-09T14:56:36;20.20;99.90
15819;DHT22;8010;53.986;12.106;2022-09-09T14:59:02;20.10;99.90
15819;DHT22;8010;53.986;12.106;2022-09-09T15:01:29;20.00;99.90
15819;DHT22;8010;53.986;12.106;2022-09-09T15:03:57;20.00;99.90
15819;DHT22;8010;53.986;12.106;2022-09-09T15:06:24;20.00;99.90
15819;DHT22;8010;53.986;12.106;2022-09-09T15:08:51;19.90;99.90
15819;DHT22;8010;53.986;12.106;2022-09-09T15:11:17;19.90;99.90
15819;DHT22;8010;53.986;12.106;2022-09-09T15:13:43;20.00;99.90
15819;DHT22;8010;53.986;12.106;2022-09-09T15:16:17;20.20;99.90
15819;DHT22;8010;53.986;12.106;2022-09-09T15:18:44;20.40;99.90
15819;DHT22;8010;53.986;12.106;2022-09-09T15:21:15;20.50;99.90
15819;DHT22;8010;53.986;12.106;2022-09-09T15:23:41;20.50;99.90
15819;DHT22;8010;53.986;12.106;2022-09-09T15:26:08;20.40;99.90
15819;DHT22;8010;53.986;12.106;2022-09-09T15:28:35;20.20;99.90
15819;DHT22;8010;53.986;12.106;2022-09-09T15:31:07;20.00;99.90
15819;DHT22;8010;53.986;12.106;2022-09-09T15:33:33;20.60;99.90
15819;DHT22;8010;53.986;12.106;2022-09-09T15:35:59;19.70;99.90
15819;DHT22;8010;53.986;12.106;2022-09-09T15:38:24;19.50;99.90
15819;DHT22;8010;53.986;12.106;2022-09-09T15:40:54;19.40;99.90
15819;DHT22;8010;53.986;12.106;2022-09-09T15:43:20;19.30;99.90
15819;DHT22;8010;53.986;12.106;2022-09-09T15:45:52;19.20;99.90
15819;DHT22;8010;53.986;12.106;2022-09-09T15:48:22;19.20;99.90
15819;DHT22;8010;53.986;12.106;2022-09-09T15:51:02;19.10;99.90
15819;DHT22;8010;53.986;12.106;2022-09-09T15:53:29;19.00;99.90
15819;DHT22;8010;53.986;12.106;2022-09-09T15:55:55;19.00;99.90
15819;DHT22;8010;53.986;12.106;2022-09-09T15:58:21;18.90;99.90
15819;DHT22;8010;53.986;12.106;2022-09-09T16:00:46;18.90;99.90
15819;DHT22;8010;53.986;12.106;2022-09-09T16:03:12;18.80;99.90
15819;DHT22;8010;53.986;12.106;2022-09-09T16:05:38;18.80;99.90
15819;DHT22;8010;53.986;12.106;2022-09-09T16:08:03;18.80;99.90
15819;DHT22;8010;53.986;12.106;2022-09-09T16:10:29;20.10;99.90
15819;DHT22;8010;53.986;12.106;2022-09-09T16:12:56;18.70;99.90
15819;DHT22;8010;53.986;12.106;2022-09-09T16:15:21;18.70;99.90
15819;DHT22;8010;53.986;12.106;2022-09-09T16:17:48;18.70;99.90
15819;DHT22;8010;53.986;12.106;2022-09-09T16:20:14;18.70;99.90
15819;DHT22;8010;53.986;12.106;2022-09-09T16:22:40;18.70;99.90
15819;DHT22;8010;53.986;12.106;2022-09-09T16:25:06;18.60;99.90
15819;DHT22;8010;53.986;12.106;2022-09-09T16:27:31;18.60;99.90
15819;DHT22;8010;53.986;12.106;2022-09-09T16:29:57;18.60;99.90
15819;DHT22;8010;53.986;12.106;2022-09-09T16:32:23;18.60;99.90
15819;DHT22;8010;53.986;12.106;2022-09-09T16:34:48;18.50;99.90
15819;DHT22;8010;53.986;12.106;2022-09-09T16:37:14;18.50;99.90
15819;DHT22;8010;53.986;12.106;2022-09-09T16:39:39;20.10;99.90
15819;DHT22;8010;53.986;12.106;2022-09-09T16:42:05;18.50;99.90
15819;DHT22;8010;53.986;12.106;2022-09-09T16:44:30;19.30;99.90
15819;DHT22;8010;53.986;12.106;2022-09-09T16:46:56;18.40;99.90
15819;DHT22;8010;53.986;12.106;2022-09-09T16:49:21;18.30;99.90
15819;DHT22;8010;53.986;12.106;2022-09-09T16:51:49;18.20;99.90
15819;DHT22;8010;53.986;12.106;2022-09-09T16:54:16;18.00;99.90
15819;DHT22;8010;53.986;12.106;2022-09-09T16:56:44;17.90;99.90
15819;DHT22;8010;53.986;12.106;2022-09-09T16:59:16;17.70;99.90
15819;DHT22;8010;53.986;12.106;2022-09-09T17:01:43;17.50;99.90
15819;DHT22;8010;53.986;12.106;2022-09-09T17:04:21;17.30;99.90
15819;DHT22;8010;53.986;12.106;2022-09-09T17:06:50;17.20;99.90
15819;DHT22;8010;53.986;12.106;2022-09-09T17:09:17;17.00;99.90
15819;DHT22;8010;53.986;12.106;2022-09-09T17:11:43;16.90;99.90
15819;DHT22;8010;53.986;12.106;2022-09-09T17:14:13;16.70;99.90
15819;DHT22;8010;53.986;12.106;2022-09-09T17:16:39;16.50;99.90
15819;DHT22;8010;53.986;12.106;2022-09-09T17:19:05;16.50;99.90
15819;DHT22;8010;53.986;12.106;2022-09-09T17:21:32;16.40;99.90
15819;DHT22;8010;53.986;12.106;2022-09-09T17:23:58;16.20;99.90
15819;DHT22;8010;53.986;12.106;2022-09-09T17:26:28;16.20;99.90
15819;DHT22;8010;53.986;12.106;2022-09-09T17:28:55;16.10;99.90
15819;DHT22;8010;53.986;12.106;2022-09-09T17:31:23;16.00;99.90
15819;DHT22;8010;53.986;12.106;2022-09-09T17:33:50;15.90;99.90